createdAt,value
2022-12-03T12:43:34.960Z,26.17
2022-12-03T12:46:46.071Z,28.65
2022-12-03T12:49:01.601Z,27.10
2022-12-03T12:51:29.564Z,32.95
2022-12-03T12:53:57.479Z,29.98
2022-12-03T12:56:26.318Z,25.90
2022-12-03T12:58:54.490Z,32.30
2022-12-03T13:01:26.471Z,23.50
2022-12-03T13:03:54.825Z,24.92
2022-12-03T13:06:31.339Z,22.92
2022-12-03T13:09:01.270Z,26.70
2022-12-03T13:11:45.843Z,44.25
2022-12-03T13:14:19.891Z,23.00
2022-12-03T13:16:49.259Z,24.30
2022-12-03T13:19:23.169Z,24.67
2022-12-03T13:22:03.225Z,22.37
2022-12-03T13:24:37.041Z,24.90
2022-12-03T13:27:13.936Z,22.25
2022-12-03T13:29:42.306Z,21.27
2022-12-03T13:32:16.036Z,21.33
2022-12-03T13:34:44.986Z,22.27
2022-12-03T13:37:15.783Z,28.40
2022-12-03T13:39:51.148Z,24.25
2022-12-03T13:42:41.566Z,21.08
2022-12-03T13:45:15.119Z,21.08
2022-12-03T13:47:47.030Z,22.33
2022-12-03T13:50:24.583Z,23.05
2022-12-03T13:52:53.121Z,29.80
2022-12-03T13:55:31.472Z,33.97
2022-12-03T13:57:59.393Z,24.05
2022-12-03T14:00:26.968Z,23.45
2022-12-03T14:02:55.028Z,23.00
2022-12-03T14:05:22.692Z,24.30
2022-12-03T14:07:50.273Z,26.83
2022-12-03T14:10:18.286Z,25.95
2022-12-03T14:12:45.814Z,24.33
2022-12-03T14:15:14.400Z,25.10
2022-12-03T14:17:42.388Z,24.23
2022-12-03T14:20:10.670Z,23.62
2022-12-03T14:22:39.133Z,25.48
2022-12-03T14:25:07.374Z,34.22
2022-12-03T14:27:35.354Z,45.58
2022-12-03T14:30:04.112Z,50.10
2022-12-03T14:32:32.027Z,46.28
2022-12-03T14:35:00.462Z,44.25
2022-12-03T14:37:29.592Z,38.88
2022-12-03T14:39:57.585Z,38.20
2022-12-03T14:42:25.355Z,34.72
2022-12-03T14:44:52.962Z,31.45
2022-12-03T14:47:25.264Z,31.75
2022-12-03T14:49:53.326Z,33.92
2022-12-03T14:52:21.585Z,52.53
2022-12-03T14:54:49.506Z,51.83
2022-12-03T14:57:17.329Z,68.03
2022-12-03T14:59:47.033Z,49.28
2022-12-03T15:02:14.696Z,38.30
2022-12-03T15:04:42.301Z,30.85
2022-12-03T15:07:10.158Z,30.85
2022-12-03T15:09:37.975Z,28.77
2022-12-03T15:12:06.052Z,26.98
2022-12-03T15:14:34.043Z,27.13
2022-12-03T15:17:01.686Z,27.48
2022-12-03T15:19:29.571Z,28.17
2022-12-03T15:21:57.397Z,30.77
2022-12-03T15:24:24.928Z,28.80
2022-12-03T15:26:53.577Z,29.27
2022-12-03T15:29:21.814Z,30.48
2022-12-03T15:31:49.413Z,31.45
2022-12-03T15:34:22.182Z,40.78
2022-12-03T15:36:51.238Z,45.72
2022-12-03T15:39:19.465Z,48.47
2022-12-03T15:41:47.123Z,40.10
2022-12-03T15:44:15.114Z,35.83
2022-12-03T15:46:42.732Z,37.85
2022-12-03T15:49:10.325Z,33.45
2022-12-03T15:51:38.193Z,33.40
2022-12-03T15:54:06.547Z,32.55
2022-12-03T15:56:37.635Z,33.58
2022-12-03T15:59:06.026Z,45.10
2022-12-03T16:01:33.989Z,44.17
2022-12-03T16:04:02.173Z,45.63
2022-12-03T16:06:30.074Z,45.70
2022-12-03T16:08:57.771Z,46.42
2022-12-03T16:11:26.053Z,36.50
2022-12-03T16:13:53.605Z,36.30
2022-12-03T16:16:21.224Z,37.33
2022-12-03T16:18:49.189Z,37.00
2022-12-03T16:21:18.860Z,41.85
2022-12-03T16:23:49.889Z,42.75
2022-12-03T16:26:17.438Z,41.00
2022-12-03T16:28:45.088Z,51.55
2022-12-03T16:31:13.187Z,48.47
2022-12-03T16:33:40.727Z,51.95
2022-12-03T16:36:08.640Z,56.42
2022-12-03T16:38:36.831Z,53.65
2022-12-03T16:41:04.492Z,51.05
2022-12-03T16:43:35.645Z,44.05
2022-12-03T16:48:48.582Z,37.90
2022-12-03T16:51:19.383Z,41.17
2022-12-03T16:53:48.267Z,40.70
2022-12-03T16:56:16.961Z,36.67
2022-12-03T16:58:45.212Z,34.15
2022-12-03T17:01:13.068Z,34.97
2022-12-03T17:03:42.237Z,36.40
2022-12-03T17:06:10.053Z,33.70
2022-12-03T17:08:37.732Z,39.30
2022-12-03T17:11:05.889Z,145.85
2022-12-03T17:13:33.563Z,73.57
2022-12-03T17:16:02.113Z,47.78
2022-12-03T17:18:30.146Z,45.15
2022-12-03T17:20:58.008Z,43.72
2022-12-03T17:23:25.633Z,42.28
2022-12-03T17:25:53.501Z,36.53
2022-12-03T17:28:21.038Z,37.72
2022-12-03T17:30:48.717Z,44.05
2022-12-03T17:33:16.684Z,77.47
2022-12-03T17:35:45.596Z,43.17
2022-12-03T17:38:13.118Z,36.97
2022-12-03T17:40:41.159Z,35.20
2022-12-03T17:43:08.710Z,34.60
2022-12-03T17:45:36.830Z,38.22
2022-12-03T17:48:05.462Z,34.97
2022-12-03T17:50:34.291Z,35.15
2022-12-03T17:53:05.359Z,35.47
2022-12-03T17:55:41.004Z,39.47
2022-12-03T17:58:13.335Z,35.80
2022-12-03T18:00:41.611Z,41.08
2022-12-03T18:03:09.502Z,47.95
2022-12-03T18:05:37.180Z,51.97
2022-12-03T18:08:05.070Z,60.12
2022-12-03T18:10:32.992Z,67.60
2022-12-03T18:13:02.107Z,69.32
2022-12-03T18:15:30.719Z,63.78
2022-12-03T18:17:58.981Z,51.22
2022-12-03T18:20:26.731Z,44.85
2022-12-03T18:22:54.353Z,41.45
2022-12-03T18:25:26.042Z,52.97
2022-12-03T18:27:53.638Z,87.32
2022-12-03T18:30:21.407Z,41.97
2022-12-03T18:32:52.993Z,31.95
2022-12-03T18:35:20.813Z,40.15
2022-12-03T18:37:50.815Z,41.15
2022-12-03T18:40:23.927Z,34.38
2022-12-03T18:42:51.700Z,30.48
2022-12-03T18:45:20.024Z,36.13
2022-12-03T18:47:47.793Z,37.20
2022-12-03T18:50:15.449Z,36.08
2022-12-03T18:52:43.418Z,29.42
2022-12-03T18:55:18.835Z,31.15
2022-12-03T18:57:47.417Z,32.05
2022-12-03T19:00:16.046Z,28.83
2022-12-03T19:03:02.607Z,29.35
2022-12-03T19:05:34.815Z,29.80
2022-12-03T19:08:03.495Z,28.92
2022-12-03T19:10:31.860Z,26.37
2022-12-03T19:12:59.710Z,25.50
2022-12-03T19:15:27.649Z,25.98
2022-12-03T19:17:57.656Z,25.58
2022-12-03T19:20:25.393Z,25.48
2022-12-03T19:22:53.260Z,26.83
2022-12-03T19:25:21.814Z,26.30
2022-12-03T19:27:50.793Z,25.88
2022-12-03T19:30:19.220Z,25.70
2022-12-03T19:32:51.608Z,28.27
2022-12-03T19:35:21.345Z,30.75
2022-12-03T19:37:50.190Z,33.53
2022-12-03T19:40:18.254Z,35.30
2022-12-03T19:42:46.484Z,38.70
2022-12-03T19:45:14.767Z,36.85
2022-12-03T19:47:42.789Z,37.33
2022-12-03T19:50:11.326Z,55.38
2022-12-03T19:52:39.379Z,73.68
2022-12-03T19:55:07.617Z,38.97
2022-12-03T19:57:35.561Z,32.13
2022-12-03T20:00:05.414Z,32.45
2022-12-03T20:02:39.999Z,32.30
2022-12-03T20:05:08.313Z,32.70
2022-12-03T20:07:36.148Z,34.50
2022-12-03T20:10:04.955Z,33.45
2022-12-03T20:12:33.284Z,36.47
2022-12-03T20:15:01.118Z,42.83
2022-12-03T20:17:28.796Z,42.35
2022-12-03T20:19:57.249Z,41.70
2022-12-03T20:22:25.628Z,40.28
2022-12-03T20:24:53.680Z,38.75
2022-12-03T20:27:23.155Z,37.50
2022-12-03T20:29:51.252Z,35.58
2022-12-03T20:32:19.182Z,31.92
2022-12-03T20:34:47.262Z,30.58
2022-12-03T20:37:15.222Z,27.87
2022-12-03T20:39:43.187Z,27.77
2022-12-03T20:42:11.688Z,29.67
2022-12-03T20:44:39.527Z,30.60
2022-12-03T20:47:07.373Z,28.80
2022-12-03T20:49:35.745Z,28.48
2022-12-03T20:52:04.884Z,27.52
2022-12-03T20:54:32.839Z,26.40
2022-12-03T20:57:00.997Z,29.17
2022-12-03T20:59:29.027Z,29.45
2022-12-03T21:01:56.884Z,30.05
2022-12-03T21:04:24.870Z,30.23
2022-12-03T21:06:52.442Z,29.45
2022-12-03T21:09:20.277Z,29.33
2022-12-03T21:11:48.443Z,29.63
2022-12-03T21:14:16.086Z,29.40
2022-12-03T21:19:38.562Z,28.02
2022-12-03T21:22:06.574Z,26.77
2022-12-03T21:24:34.452Z,27.15
2022-12-03T21:27:03.690Z,26.83
2022-12-03T21:29:31.594Z,26.20
2022-12-03T21:31:59.396Z,27.02
2022-12-03T21:34:31.327Z,31.02
2022-12-03T21:37:03.614Z,29.52
2022-12-03T21:39:31.755Z,27.13
2022-12-03T21:42:33.353Z,27.73
2022-12-03T21:44:47.211Z,28.92
2022-12-03T21:47:14.900Z,33.78
2022-12-03T21:49:42.666Z,29.92
2022-12-03T21:52:10.995Z,31.73
2022-12-03T21:54:38.572Z,32.00
2022-12-03T21:57:06.375Z,29.17
2022-12-03T21:59:34.653Z,27.30
2022-12-03T22:02:02.547Z,29.25
2022-12-03T22:04:30.573Z,26.08
2022-12-03T22:06:58.130Z,25.58
2022-12-03T22:09:26.891Z,24.58
2022-12-03T22:11:56.951Z,25.95
2022-12-03T22:14:25.093Z,27.62
2022-12-03T22:16:52.680Z,27.25
2022-12-03T22:19:24.758Z,27.08
2022-12-03T22:21:52.488Z,26.58
2022-12-03T22:24:20.378Z,25.98
2022-12-03T22:26:47.918Z,24.33
2022-12-03T22:29:15.671Z,23.55
2022-12-03T22:31:44.346Z,23.80
2022-12-03T22:34:12.190Z,22.65
2022-12-03T22:36:39.699Z,23.58
2022-12-03T22:39:07.583Z,24.75
2022-12-03T22:41:35.166Z,22.70
2022-12-03T22:44:02.774Z,24.58
2022-12-03T22:46:30.879Z,23.35
2022-12-03T22:49:01.810Z,22.77
2022-12-03T22:51:33.025Z,22.55
2022-12-03T22:54:01.866Z,23.33
2022-12-03T22:56:30.580Z,24.10
2022-12-03T22:58:58.760Z,23.48
2022-12-03T23:01:32.170Z,23.80
2022-12-03T23:04:01.187Z,23.33
2022-12-03T23:06:30.523Z,23.35
2022-12-03T23:08:58.863Z,22.45
2022-12-03T23:11:27.490Z,22.58
2022-12-03T23:13:55.188Z,22.83
2022-12-03T23:16:26.734Z,22.58
2022-12-03T23:18:54.801Z,22.62
2022-12-03T23:21:29.977Z,22.85
2022-12-03T23:23:59.445Z,22.05
2022-12-03T23:26:28.365Z,25.12
2022-12-03T23:28:56.624Z,22.67
2022-12-03T23:31:27.829Z,22.48
2022-12-03T23:33:56.963Z,23.00
2022-12-03T23:36:27.195Z,22.25
2022-12-03T23:38:54.879Z,23.05
2022-12-03T23:41:23.950Z,22.08
2022-12-03T23:43:52.453Z,23.70
2022-12-03T23:46:23.725Z,23.38
2022-12-03T23:48:52.223Z,22.08
2022-12-03T23:51:23.799Z,22.52
2022-12-03T23:53:53.179Z,23.05
2022-12-03T23:56:24.237Z,23.12
2022-12-03T23:58:51.806Z,21.92
